Time;durP1;ratioP1;P1;durP2;ratioP2;P2;SDS_P1;SDS_P2;PMS_P1;PMS_P2;Temp;Humidity;BMP_temperature;BMP_pressure;BME280_temperature;BME280_humidity;BME280_pressure;Samples;Min_cycle;Max_cycle;Signal;HPM_P1;HPM_P2
2022/10/16 00:01:18;;;;;;;4.85;2.33;;;12.00;99.90;;;;;;4937879;28;20629;-76
2022/10/16 00:03:44;;;;;;;3.55;1.85;;;12.00;99.90;;;;;;4947175;29;20099;-77
2022/10/16 00:06:11;;;;;;;8.05;2.60;;;12.00;99.90;;;;;;4953796;28;20046;-76
2022/10/16 00:08:37;;;;;;;8.05;2.58;;;12.00;99.90;;;;;;4946480;28;20043;-76
2022/10/16 00:11:16;;;;;;;7.47;2.50;;;11.90;99.90;;;;;;4954072;29;20043;-76
2022/10/16 00:13:43;;;;;;;4.97;2.08;;;11.90;99.90;;;;;;4978998;28;20041;-76
2022/10/16 00:16:10;;;;;;;6.15;2.40;;;12.00;99.90;;;;;;4946108;28;20047;-77
2022/10/16 00:18:36;;;;;;;4.60;2.20;;;11.90;99.90;;;;;;4986909;28;20039;-77
2022/10/16 00:21:27;;;;;;;4.78;2.25;;;11.90;99.90;;;;;;4954580;28;20424;-77
2022/10/16 00:24:04;;;;;;;6.95;2.20;;;11.90;99.90;;;;;;4950516;28;20051;-77
2022/10/16 00:26:32;;;;;;;6.75;2.08;;;11.90;99.90;;;;;;4953970;28;20043;-77
2022/10/16 00:28:59;;;;;;;6.75;2.00;;;11.90;99.90;;;;;;4934577;29;20075;-77
2022/10/16 00:31:25;;;;;;;3.85;1.90;;;11.90;99.90;;;;;;4952914;28;20039;-76
2022/10/16 00:33:51;;;;;;;7.55;2.10;;;11.90;99.90;;;;;;4946851;28;20558;-77
2022/10/16 00:36:20;;;;;;;6.10;2.30;;;11.90;99.90;;;;;;4984529;28;20035;-77
2022/10/16 00:38:46;;;;;;;5.60;2.28;;;11.90;99.90;;;;;;4953655;28;20485;-77
2022/10/16 00:41:17;;;;;;;7.30;2.30;;;11.90;99.90;;;;;;4977179;28;20095;-77
2022/10/16 00:43:48;;;;;;;6.07;2.60;;;11.90;99.90;;;;;;4969670;28;20054;-77
2022/10/16 00:46:24;;;;;;;5.35;2.50;;;11.90;99.90;;;;;;4964497;28;20035;-76
2022/10/16 00:49:15;;;;;;;4.75;2.15;;;11.90;99.90;;;;;;4954256;29;20296;-77
2022/10/16 00:51:42;;;;;;;5.28;2.20;;;11.90;99.90;;;;;;4953008;29;20063;-76
2022/10/16 00:54:16;;;;;;;5.22;2.10;;;11.90;99.90;;;;;;4953607;28;20039;-77
2022/10/16 00:56:43;;;;;;;4.25;2.20;;;11.90;99.90;;;;;;4929957;29;20494;-77
2022/10/16 00:59:17;;;;;;;7.28;2.30;;;11.90;99.90;;;;;;4951093;28;20058;-77
2022/10/16 01:01:43;;;;;;;6.93;2.75;;;11.90;99.90;;;;;;4981103;28;20042;-77
2022/10/16 01:04:08;;;;;;;4.53;2.10;;;11.90;99.90;;;;;;4953708;28;20047;-77
2022/10/16 01:06:50;;;;;;;3.80;1.73;;;11.90;99.90;;;;;;4945607;28;20071;-77
2022/10/16 01:09:51;;;;;;;4.47;2.63;;;11.90;99.90;;;;;;4945575;28;20039;-77
2022/10/16 01:12:51;;;;;;;4.53;2.13;;;11.90;99.90;;;;;;4949971;28;20046;-77
2022/10/16 01:15:17;;;;;;;6.55;2.30;;;11.90;99.90;;;;;;4949678;28;20083;-77
2022/10/16 01:17:49;;;;;;;4.20;2.08;;;11.90;99.90;;;;;;4964849;28;20548;-77
2022/10/16 01:20:25;;;;;;;4.25;1.90;;;11.90;99.90;;;;;;4953731;29;20039;-77
2022/10/16 01:23:01;;;;;;;5.88;1.92;;;11.90;99.90;;;;;;4945163;29;20039;-77
2022/10/16 01:25:58;;;;;;;3.83;1.92;;;11.90;99.90;;;;;;4952108;28;20449;-77
2022/10/16 01:28:44;;;;;;;3.58;2.30;;;11.90;99.90;;;;;;4938950;28;20046;-77
2022/10/16 01:31:14;;;;;;;4.82;2.10;;;12.00;99.90;;;;;;4936704;29;20035;-77
2022/10/16 01:33:47;;;;;;;2.97;1.80;;;11.90;99.90;;;;;;4948247;28;20062;-77
2022/10/16 01:36:23;;;;;;;6.78;2.95;;;12.00;99.90;;;;;;4978633;28;20054;-76
2022/10/16 01:38:52;;;;;;;5.05;2.42;;;12.00;99.90;;;;;;4953433;29;20058;-76
2022/10/16 01:41:46;;;;;;;3.05;2.22;;;12.00;99.90;;;;;;4951385;28;20376;-77
2022/10/16 01:44:16;;;;;;;;;;;12.00;99.90;;;;;;4950980;28;20090;-77
2022/10/16 01:46:47;;;;;;;4.22;2.20;;;12.00;99.90;;;;;;4936043;29;20014;-76
2022/10/16 01:49:13;;;;;;;6.63;2.47;;;12.10;99.90;;;;;;4937033;29;20062;-77
2022/10/16 01:51:40;;;;;;;5.05;1.95;;;12.10;99.90;;;;;;4951909;28;20465;-77
2022/10/16 01:54:08;;;;;;;4.25;2.20;;;12.10;99.90;;;;;;4980514;28;20039;-77
2022/10/16 01:56:35;;;;;;;6.15;2.53;;;12.10;99.90;;;;;;4952752;28;20398;-77
2022/10/16 01:59:09;;;;;;;3.85;2.20;;;12.10;99.90;;;;;;4952987;29;20097;-77
2022/10/16 02:01:39;;;;;;;3.70;1.90;;;12.10;99.90;;;;;;4952223;28;20039;-77
2022/10/16 02:04:31;;;;;;;4.43;2.25;;;12.10;99.90;;;;;;4944871;29;20039;-77
2022/10/16 02:06:57;;;;;;;5.45;2.17;;;12.10;99.90;;;;;;4934268;29;20065;-77
2022/10/16 02:09:23;;;;;;;6.57;2.35;;;12.10;99.90;;;;;;4952177;28;20058;-77
2022/10/16 02:11:51;;;;;;;4.90;2.47;;;12.10;99.90;;;;;;4934713;29;20478;-77
2022/10/16 02:14:16;;;;;;;4.43;2.03;;;12.10;99.90;;;;;;4952320;28;20438;-77
2022/10/16 02:16:44;;;;;;;4.15;2.22;;;12.10;99.90;;;;;;4928507;29;20061;-77
2022/10/16 02:19:12;;;;;;;5.53;2.10;;;12.10;99.90;;;;;;4952816;29;20043;-77
2022/10/16 02:21:51;;;;;;;4.07;2.25;;;12.10;99.90;;;;;;4952110;29;20050;-77
2022/10/16 02:24:47;;;;;;;6.43;2.40;;;12.10;99.90;;;;;;4959392;28;20070;-77
2022/10/16 02:27:34;;;;;;;4.70;2.63;;;12.10;99.90;;;;;;4948692;29;20078;-77
2022/10/16 02:30:38;;;;;;;4.22;2.50;;;12.10;99.90;;;;;;4936534;29;20039;-77
2022/10/16 02:33:06;;;;;;;3.55;2.20;;;12.10;99.90;;;;;;4928789;28;20062;-77
2022/10/16 02:35:33;;;;;;;6.97;2.50;;;12.10;99.90;;;;;;4977453;28;20035;-77
2022/10/16 02:37:59;;;;;;;4.05;2.53;;;12.10;99.90;;;;;;4952449;29;20130;-77
2022/10/16 02:40:26;;;;;;;4.80;2.42;;;12.10;99.90;;;;;;4951928;28;20125;-77
2022/10/16 02:42:53;;;;;;;4.00;2.42;;;12.10;99.90;;;;;;4983866;28;20474;-77
2022/10/16 02:45:19;;;;;;;3.45;2.40;;;12.10;99.90;;;;;;4942913;28;20031;-77
2022/10/16 02:47:45;;;;;;;5.80;2.72;;;12.10;99.90;;;;;;4936190;29;20544;-77
2022/10/16 02:50:10;;;;;;;4.70;2.10;;;12.10;99.90;;;;;;4949539;28;20043;-77
2022/10/16 02:52:36;;;;;;;5.20;2.25;;;12.20;99.90;;;;;;4942984;28;20047;-77
2022/10/16 02:55:02;;;;;;;4.60;2.08;;;12.20;99.90;;;;;;4964728;28;20521;-77
2022/10/16 02:57:27;;;;;;;3.38;2.08;;;12.20;99.90;;;;;;4943994;28;20401;-78
2022/10/16 02:59:53;;;;;;;5.00;1.98;;;12.20;99.90;;;;;;4938470;29;20035;-76
2022/10/16 03:02:19;;;;;;;3.50;2.38;;;12.20;99.90;;;;;;4951966;29;20630;-77
2022/10/16 03:04:45;;;;;;;6.55;2.28;;;12.20;99.90;;;;;;4982935;28;20039;-77
2022/10/16 03:07:10;;;;;;;2.35;2.10;;;12.20;99.90;;;;;;4963966;28;20409;-77
2022/10/16 03:09:36;;;;;;;4.38;2.60;;;12.20;99.90;;;;;;4955528;28;20043;-77
2022/10/16 03:12:02;;;;;;;3.80;2.45;;;12.30;99.90;;;;;;4932082;29;20050;-77
2022/10/16 03:14:28;;;;;;;3.53;2.13;;;12.30;99.90;;;;;;4955313;28;20131;-76
2022/10/16 03:16:53;;;;;;;4.70;2.50;;;12.30;99.90;;;;;;4987993;28;20126;-76
2022/10/16 03:19:19;;;;;;;4.80;2.50;;;12.30;99.90;;;;;;4931198;29;20494;-77
2022/10/16 03:21:45;;;;;;;4.60;2.63;;;12.30;99.90;;;;;;4952141;28;20476;-77
2022/10/16 03:24:11;;;;;;;4.68;2.85;;;12.20;99.90;;;;;;4986556;28;20110;-77
2022/10/16 03:26:36;;;;;;;3.08;2.58;;;12.30;99.90;;;;;;4988058;28;20050;-77
2022/10/16 03:29:03;;;;;;;6.53;2.90;;;12.30;99.90;;;;;;4955462;29;20043;-76
2022/10/16 03:31:29;;;;;;;5.43;2.70;;;12.20;99.90;;;;;;4954918;29;20561;-76
2022/10/16 03:33:55;;;;;;;4.00;2.88;;;12.30;99.90;;;;;;4930713;28;20039;-77
2022/10/16 03:36:20;;;;;;;3.53;2.63;;;12.20;99.90;;;;;;4955324;29;20446;-77
2022/10/16 03:38:46;;;;;;;4.60;2.78;;;12.30;99.90;;;;;;4955357;29;20497;-77
2022/10/16 03:41:11;;;;;;;4.68;2.58;;;12.20;99.90;;;;;;4954984;28;20163;-77
2022/10/16 03:43:37;;;;;;;7.80;3.10;;;12.20;99.90;;;;;;4937830;28;20481;-77
2022/10/16 03:46:02;;;;;;;5.18;3.22;;;12.20;99.90;;;;;;4955080;29;20039;-77
2022/10/16 03:48:28;;;;;;;4.95;3.08;;;12.20;99.90;;;;;;4955327;29;20047;-77
2022/10/16 03:50:54;;;;;;;5.35;3.40;;;12.10;99.90;;;;;;4955389;29;20050;-77
2022/10/16 03:53:20;;;;;;;7.80;3.50;;;12.10;99.90;;;;;;4946573;28;20449;-77
2022/10/16 03:55:46;;;;;;;4.68;3.25;;;12.20;99.90;;;;;;4954502;28;20152;-77
2022/10/16 03:58:12;;;;;;;4.82;3.25;;;12.10;99.90;;;;;;4955125;28;20094;-77
2022/10/16 04:00:44;;;;;;;5.75;3.47;;;12.10;99.90;;;;;;4955241;29;20043;-76
2022/10/16 04:03:11;;;;;;;8.30;3.90;;;12.00;99.90;;;;;;4946579;29;20039;-77
2022/10/16 04:05:36;;;;;;;7.15;3.50;;;12.00;99.90;;;;;;4936455;29;20043;-77
2022/10/16 04:08:02;;;;;;;5.30;3.50;;;12.00;99.90;;;;;;4938809;29;20050;-77
2022/10/16 04:10:28;;;;;;;4.47;3.30;;;11.90;99.90;;;;;;4949287;28;20486;-76
2022/10/16 04:12:55;;;;;;;5.80;3.50;;;11.90;99.90;;;;;;4941903;28;20479;-76
2022/10/16 04:15:22;;;;;;;6.22;3.40;;;11.90;99.90;;;;;;4938689;29;20067;-77
2022/10/16 04:17:47;;;;;;;5.32;3.63;;;11.90;99.90;;;;;;4954933;29;20458;-77
2022/10/16 04:20:13;;;;;;;5.18;3.45;;;11.80;99.90;;;;;;4954847;29;20053;-77
2022/10/16 04:22:39;;;;;;;4.88;4.10;;;11.80;99.90;;;;;;4953823;28;20422;-76
2022/10/16 04:25:05;;;;;;;8.35;4.10;;;11.80;99.90;;;;;;4953633;28;20050;-77
2022/10/16 04:27:31;;;;;;;8.05;4.05;;;11.70;99.90;;;;;;4954436;29;20035;-77
2022/10/16 04:29:57;;;;;;;5.32;3.70;;;11.70;99.90;;;;;;4954844;29;20042;-76
2022/10/16 04:32:23;;;;;;;6.78;4.18;;;11.70;99.90;;;;;;4934167;29;20557;-76
2022/10/16 04:34:49;;;;;;;7.28;4.40;;;11.70;99.90;;;;;;4981949;28;20027;-77
2022/10/16 04:37:14;;;;;;;10.10;4.63;;;11.70;99.90;;;;;;4950956;28;20039;-77
2022/10/16 04:39:40;;;;;;;5.30;3.90;;;11.70;99.90;;;;;;4946170;29;20066;-77
2022/10/16 04:42:05;;;;;;;4.38;3.83;;;11.70;99.90;;;;;;4951575;28;20437;-77
2022/10/16 04:44:31;;;;;;;8.02;4.05;;;11.70;99.90;;;;;;4947234;28;20057;-77
2022/10/16 04:46:56;;;;;;;7.15;4.63;;;11.70;99.90;;;;;;4938035;29;20074;-77
2022/10/16 04:49:22;;;;;;;6.95;4.10;;;11.80;99.90;;;;;;4933011;29;20031;-77
2022/10/16 04:51:48;;;;;;;5.80;4.00;;;11.80;99.90;;;;;;4953491;29;20510;-77
2022/10/16 04:54:13;;;;;;;7.63;4.35;;;11.70;99.90;;;;;;4945514;28;20031;-77
2022/10/16 04:56:50;;;;;;;5.30;3.80;;;11.80;99.90;;;;;;4938412;29;20039;-77
2022/10/16 04:59:16;;;;;;;6.78;4.40;;;11.80;99.90;;;;;;4954024;29;20039;-77
2022/10/16 05:01:42;;;;;;;6.30;4.50;;;11.80;99.90;;;;;;4953633;29;20057;-77
2022/10/16 05:04:07;;;;;;;5.07;4.00;;;11.80;99.90;;;;;;4951264;28;20130;-77
2022/10/16 05:06:33;;;;;;;7.60;4.90;;;11.80;99.90;;;;;;4945165;28;20047;-77
2022/10/16 05:08:59;;;;;;;5.10;4.22;;;11.80;99.90;;;;;;4985864;28;20497;-77
2022/10/16 05:11:24;;;;;;;4.88;4.03;;;11.80;99.90;;;;;;4937971;29;20039;-77
2022/10/16 05:13:50;;;;;;;4.85;4.07;;;11.80;99.90;;;;;;4954084;23;20039;-77
2022/10/16 05:16:15;;;;;;;5.85;3.95;;;11.80;99.90;;;;;;4950686;29;20039;-77
2022/10/16 05:18:41;;;;;;;5.28;4.07;;;11.70;99.90;;;;;;4934511;29;20043;-77
2022/10/16 05:21:07;;;;;;;5.32;4.18;;;11.70;99.90;;;;;;4950371;28;20425;-77
2022/10/16 05:23:33;;;;;;;4.88;4.28;;;11.70;99.90;;;;;;4951180;28;20051;-77
2022/10/16 05:25:59;;;;;;;5.20;4.03;;;11.70;99.90;;;;;;4952756;29;20106;-77
2022/10/16 05:28:29;;;;;;;6.40;4.18;;;11.70;99.90;;;;;;4934308;29;20046;-78
2022/10/16 05:30:56;;;;;;;5.10;3.75;;;11.70;99.90;;;;;;4934529;29;20044;-77
2022/10/16 05:33:22;;;;;;;6.05;4.22;;;11.70;99.90;;;;;;4946567;28;20045;-77
2022/10/16 05:35:49;;;;;;;8.35;4.55;;;11.70;99.90;;;;;;4952351;28;20043;-77
2022/10/16 05:38:15;;;;;;;5.40;3.90;;;11.70;99.90;;;;;;4952668;28;20043;-77
2022/10/16 05:40:41;;;;;;;6.18;4.32;;;11.70;99.90;;;;;;4923265;29;20087;-77
2022/10/16 05:43:06;;;;;;;6.05;4.10;;;11.70;99.90;;;;;;4944171;29;20047;-77
2022/10/16 05:45:32;;;;;;;6.47;4.00;;;11.70;99.90;;;;;;4952114;28;20051;-77
2022/10/16 05:47:57;;;;;;;5.80;4.13;;;11.70;99.90;;;;;;4952053;28;20047;-77
2022/10/16 05:50:23;;;;;;;6.07;3.83;;;11.60;99.90;;;;;;4950487;28;20822;-78
2022/10/16 05:52:49;;;;;;;6.45;3.70;;;11.70;99.90;;;;;;4952256;29;20121;-77
2022/10/16 05:55:15;;;;;;;5.72;4.15;;;11.60;99.90;;;;;;4947476;28;20065;-78
2022/10/16 05:57:41;;;;;;;5.82;3.80;;;11.60;99.90;;;;;;4932039;28;20145;-77
2022/10/16 06:00:07;;;;;;;5.95;3.80;;;11.60;99.90;;;;;;4950412;28;20173;-79
2022/10/16 06:02:32;;;;;;;5.93;3.47;;;11.60;99.90;;;;;;4949527;28;20043;-79
2022/10/16 06:04:58;;;;;;;4.93;3.22;;;11.60;99.90;;;;;;4950537;28;20378;-79
2022/10/16 06:07:23;;;;;;;7.93;3.45;;;11.60;99.90;;;;;;4926961;29;20047;-78
2022/10/16 06:09:52;;;;;;;5.22;3.53;;;11.60;99.90;;;;;;4937597;29;20031;-78
2022/10/16 06:12:18;;;;;;;5.63;3.50;;;11.70;99.90;;;;;;4920768;29;20082;-77
2022/10/16 06:14:48;;;;;;;5.07;3.15;;;11.70;99.90;;;;;;4950360;29;20027;-77
2022/10/16 06:17:14;;;;;;;6.57;3.17;;;11.70;99.90;;;;;;4952551;29;20402;-77
2022/10/16 06:19:40;;;;;;;4.63;3.03;;;11.80;99.90;;;;;;4937000;29;20035;-77
2022/10/16 06:22:06;;;;;;;5.50;3.00;;;11.80;99.90;;;;;;4951304;28;20050;-77
2022/10/16 06:24:32;;;;;;;4.20;2.75;;;11.80;99.90;;;;;;4952498;29;20039;-77
2022/10/16 06:26:57;;;;;;;6.00;3.00;;;11.80;99.90;;;;;;4951567;28;20619;-75
2022/10/16 06:29:23;;;;;;;5.35;3.00;;;11.90;99.90;;;;;;4948565;28;20036;-77
2022/10/16 06:31:48;;;;;;;4.50;3.00;;;11.90;99.90;;;;;;4933084;29;20031;-77
2022/10/16 06:34:14;;;;;;;4.32;2.70;;;11.90;99.90;;;;;;4932018;29;20039;-77
2022/10/16 06:36:39;;;;;;;5.53;2.53;;;11.90;99.90;;;;;;4952397;29;20101;-77
2022/10/16 06:39:07;;;;;;;5.18;2.75;;;11.90;99.90;;;;;;4952196;29;20553;-76
2022/10/16 06:41:33;;;;;;;4.43;2.88;;;12.00;99.90;;;;;;4936538;29;20043;-76
2022/10/16 06:43:59;;;;;;;5.57;2.38;;;12.00;99.90;;;;;;4952404;29;20083;-76
2022/10/16 06:46:26;;;;;;;6.93;2.75;;;12.00;99.90;;;;;;4952393;29;20074;-77
2022/10/16 06:48:52;;;;;;;5.45;2.60;;;12.10;99.90;;;;;;4952204;29;20043;-77
2022/10/16 06:51:19;;;;;;;3.55;2.28;;;12.20;99.90;;;;;;4951438;29;20358;-77
2022/10/16 06:53:48;;;;;;;5.95;2.75;;;12.20;99.90;;;;;;4951518;29;20035;-76
2022/10/16 06:56:18;;;;;;;4.88;2.60;;;12.30;99.90;;;;;;4952154;29;20094;-77
2022/10/16 06:58:44;;;;;;;5.65;2.20;;;12.30;99.90;;;;;;4950526;29;20051;-77
2022/10/16 07:01:11;;;;;;;4.28;2.58;;;12.40;99.90;;;;;;4951097;29;20051;-76
2022/10/16 07:03:39;;;;;;;6.22;2.28;;;12.40;99.90;;;;;;4934267;29;20512;-77
2022/10/16 07:06:07;;;;;;;4.10;2.33;;;12.40;99.90;;;;;;4951051;29;20039;-77
2022/10/16 07:08:38;;;;;;;5.18;1.90;;;12.50;99.90;;;;;;4951235;29;20118;-77
2022/10/16 07:11:09;;;;;;;3.42;2.33;;;12.50;99.90;;;;;;4951458;29;20075;-77
2022/10/16 07:13:37;;;;;;;4.63;2.20;;;12.60;99.90;;;;;;4951544;29;20027;-77
2022/10/16 07:16:06;;;;;;;3.55;2.25;;;12.60;99.90;;;;;;4950345;29;20039;-76
2022/10/16 07:18:32;;;;;;;5.93;2.40;;;12.60;99.90;;;;;;4950579;29;20073;-76
2022/10/16 07:21:19;;;;;;;3.10;2.00;;;12.70;99.90;;;;;;4952001;29;20580;-76
2022/10/16 07:23:44;;;;;;;8.98;2.45;;;12.80;99.90;;;;;;4950677;29;20035;-76
2022/10/16 07:26:11;;;;;;;4.43;2.50;;;12.80;99.90;;;;;;4949428;29;20042;-76
2022/10/16 07:28:37;;;;;;;4.30;1.90;;;12.90;99.90;;;;;;4946495;29;20035;-77
2022/10/16 07:31:08;;;;;;;3.47;1.98;;;12.90;99.90;;;;;;4951986;29;20043;-76
2022/10/16 07:33:34;;;;;;;4.70;2.33;;;12.90;99.90;;;;;;4951856;29;20042;-77
2022/10/16 07:36:00;;;;;;;3.58;1.88;;;13.00;99.90;;;;;;4952255;29;20425;-77
2022/10/16 07:38:26;;;;;;;6.57;1.63;;;13.00;99.90;;;;;;4952054;29;20057;-77
2022/10/16 07:41:03;;;;;;;7.15;1.83;;;13.00;99.90;;;;;;4951754;29;20386;-76
2022/10/16 07:43:29;;;;;;;3.83;1.45;;;13.00;99.90;;;;;;4936195;29;20046;-76
2022/10/16 07:45:55;;;;;;;3.47;1.15;;;13.00;99.90;;;;;;4953690;28;20035;-76
2022/10/16 07:48:22;;;;;;;3.70;1.05;;;13.10;99.90;;;;;;4955557;29;20051;-77
2022/10/16 07:50:47;;;;;;;2.17;0.80;;;13.10;99.90;;;;;;4955802;29;20109;-77
2022/10/16 07:53:13;;;;;;;2.28;0.90;;;13.10;99.90;;;;;;4955301;29;20043;-77
2022/10/16 07:55:39;;;;;;;6.10;0.80;;;13.10;99.90;;;;;;4955273;29;20046;-77
2022/10/16 07:58:05;;;;;;;3.25;1.00;;;13.20;99.90;;;;;;4954997;29;20047;-77
2022/10/16 08:00:32;;;;;;;3.00;1.00;;;13.20;99.90;;;;;;4936986;29;20150;-77
2022/10/16 08:03:01;;;;;;;2.05;0.95;;;13.20;99.90;;;;;;4949607;28;20062;-77
2022/10/16 08:05:28;;;;;;;6.53;1.23;;;13.30;99.90;;;;;;4952748;29;20046;-76
2022/10/16 08:07:54;;;;;;;2.78;0.93;;;13.40;99.90;;;;;;4965485;28;20114;-77
2022/10/16 08:10:21;;;;;;;3.60;1.20;;;13.40;99.90;;;;;;4949615;29;20130;-77
2022/10/16 08:12:47;;;;;;;4.72;1.50;;;13.50;99.90;;;;;;4947351;29;20039;-76
2022/10/16 08:15:13;;;;;;;4.45;1.80;;;13.50;99.90;;;;;;4932405;29;20085;-77
2022/10/16 08:17:38;;;;;;;3.38;2.00;;;13.60;99.90;;;;;;4932699;29;20490;-77
2022/10/16 08:20:05;;;;;;;3.28;2.20;;;13.60;99.90;;;;;;4951379;29;20506;-76
2022/10/16 08:22:31;;;;;;;5.72;2.38;;;13.70;99.90;;;;;;4950127;29;20047;-76
2022/10/16 08:24:56;;;;;;;6.57;2.47;;;13.80;99.90;;;;;;4954082;29;20043;-76
2022/10/16 08:27:22;;;;;;;3.97;2.40;;;13.80;99.90;;;;;;4952359;29;20138;-76
2022/10/16 08:29:48;;;;;;;4.82;2.40;;;13.80;99.90;;;;;;4952690;29;20046;-76
2022/10/16 08:32:14;;;;;;;4.32;2.30;;;13.80;99.90;;;;;;4948015;28;20387;-77
2022/10/16 08:34:40;;;;;;;5.25;2.50;;;13.80;99.90;;;;;;4951932;28;20042;-76
2022/10/16 08:37:07;;;;;;;5.13;2.45;;;13.80;99.90;;;;;;4950967;29;20573;-77
2022/10/16 08:39:33;;;;;;;4.70;2.20;;;13.70;99.90;;;;;;4951563;29;20090;-77
2022/10/16 08:42:14;;;;;;;5.25;2.38;;;13.70;99.90;;;;;;4950930;29;20446;-76
2022/10/16 08:45:01;;;;;;;4.22;2.88;;;13.70;99.90;;;;;;4919397;29;20043;-77
2022/10/16 08:47:35;;;;;;;5.30;2.35;;;13.60;99.90;;;;;;4934598;29;20090;-76
2022/10/16 08:50:09;;;;;;;4.65;2.47;;;13.60;99.90;;;;;;4952746;29;20437;-76
2022/10/16 08:52:40;;;;;;;4.93;2.35;;;13.60;99.90;;;;;;4947597;29;20510;-76
2022/10/16 08:55:06;;;;;;;5.25;1.85;;;13.70;99.90;;;;;;4937266;29;20516;-76
2022/10/16 08:57:32;;;;;;;5.47;2.15;;;13.80;99.90;;;;;;4933074;29;20039;-76
2022/10/16 09:00:12;;;;;;;4.35;2.30;;;13.90;99.90;;;;;;4931818;29;20460;-77
2022/10/16 09:03:03;;;;;;;6.53;2.33;;;13.90;99.90;;;;;;4950677;29;20042;-76
2022/10/16 09:05:53;;;;;;;9.43;2.28;;;14.00;99.90;;;;;;4946490;29;20489;-77
2022/10/16 09:08:33;;;;;;;5.72;1.92;;;14.10;99.90;;;;;;4929277;29;20413;-76
2022/10/16 09:11:20;;;;;;;3.22;1.55;;;14.20;99.90;;;;;;4931833;29;20102;-78
2022/10/16 09:14:02;;;;;;;6.10;1.88;;;14.30;99.90;;;;;;4951760;28;20032;-76
2022/10/16 09:16:37;;;;;;;3.72;1.65;;;14.30;99.90;;;;;;4931491;29;20234;-77
2022/10/16 09:19:18;;;;;;;3.88;1.60;;;14.40;99.90;;;;;;4944373;29;20123;-77
2022/10/16 09:21:45;;;;;;;4.93;1.92;;;14.40;99.90;;;;;;4950059;29;20405;-77
2022/10/16 09:24:20;;;;;;;3.88;1.88;;;14.50;99.90;;;;;;4936576;29;20039;-76
2022/10/16 09:26:46;;;;;;;5.93;1.83;;;14.50;99.90;;;;;;4951992;29;20457;-77
2022/10/16 09:29:19;;;;;;;4.20;1.75;;;14.50;99.90;;;;;;4947009;29;20245;-76
2022/10/16 09:31:46;;;;;;;4.18;1.60;;;14.60;99.90;;;;;;4932870;29;20362;-77
2022/10/16 09:34:33;;;;;;;6.88;1.50;;;14.70;99.90;;;;;;4960700;28;20094;-77
2022/10/16 09:37:09;;;;;;;5.57;1.95;;;14.80;99.90;;;;;;4949022;29;20055;-80
2022/10/16 09:39:47;;;;;;;6.25;1.33;;;14.90;99.90;;;;;;4950865;28;20070;-77
2022/10/16 09:42:41;;;;;;;7.80;1.73;;;15.00;99.90;;;;;;4934834;29;20051;-77
2022/10/16 09:45:22;;;;;;;5.93;1.30;;;15.10;99.90;;;;;;4941128;29;20043;-77
2022/10/16 09:47:48;;;;;;;7.32;1.50;;;15.20;99.90;;;;;;4953006;29;20047;-77
2022/10/16 09:50:40;;;;;;;8.35;1.63;;;15.20;99.90;;;;;;4919095;29;20431;-76
2022/10/16 09:53:14;;;;;;;7.53;2.13;;;15.30;99.90;;;;;;4950315;29;20051;-77
2022/10/16 09:55:50;;;;;;;6.57;1.70;;;15.40;99.90;;;;;;4952817;29;20177;-76
2022/10/16 09:58:16;;;;;;;5.10;1.27;;;15.50;99.90;;;;;;4933707;29;20058;-76
2022/10/16 10:00:48;;;;;;;5.63;1.67;;;15.60;99.90;;;;;;4952126;29;20061;-76
2022/10/16 10:03:36;;;;;;;9.20;1.48;;;15.70;99.90;;;;;;4952798;29;20047;-77
2022/10/16 10:06:26;;;;;;;7.22;1.67;;;15.90;99.90;;;;;;4948282;29;20406;-77
2022/10/16 10:08:54;;;;;;;7.30;1.42;;;16.00;99.90;;;;;;4949203;28;20402;-77
2022/10/16 10:11:42;;;;;;;6.72;1.63;;;16.20;99.90;;;;;;4935447;29;20067;-77
2022/10/16 10:14:38;;;;;;;6.32;1.55;;;16.40;99.90;;;;;;4952786;29;20043;-78
2022/10/16 10:17:13;;;;;;;6.63;1.60;;;16.40;99.90;;;;;;4950994;29;20509;-78
2022/10/16 10:19:49;;;;;;;6.95;1.65;;;16.50;99.90;;;;;;4950304;29;20039;-77
2022/10/16 10:22:30;;;;;;;6.45;2.30;;;16.50;99.90;;;;;;4936813;29;20114;-77
2022/10/16 10:24:56;;;;;;;5.95;1.55;;;16.80;99.90;;;;;;4951916;29;20094;-78
2022/10/16 10:27:28;;;;;;;6.75;1.58;;;16.90;99.90;;;;;;4924312;29;20075;-78
2022/10/16 10:30:26;;;;;;;5.90;1.15;;;16.90;99.90;;;;;;4967971;28;20035;-77
2022/10/16 10:33:19;;;;;;;8.20;1.83;;;17.00;99.90;;;;;;4921804;29;20069;-78
2022/10/16 10:35:56;;;;;;;3.03;1.10;;;17.10;99.90;;;;;;4952383;29;20043;-77
2022/10/16 10:38:37;;;;;;;5.63;1.33;;;17.20;99.90;;;;;;4944169;29;20040;-78
2022/10/16 10:41:40;;;;;;;5.93;1.05;;;17.30;99.90;;;;;;4949804;29;20068;-77
2022/10/16 10:44:27;;;;;;;4.90;1.30;;;17.30;99.90;;;;;;4935048;29;20051;-78
2022/10/16 10:47:24;;;;;;;5.88;1.52;;;17.30;99.90;;;;;;4936392;29;20035;-78
2022/10/16 10:50:26;;;;;;;5.43;1.38;;;17.30;99.90;;;;;;4952034;29;20495;-78
2022/10/16 10:53:00;;;;;;;6.00;2.08;;;17.40;99.90;;;;;;4952483;29;20163;-78
2022/10/16 10:55:39;;;;;;;5.07;1.55;;;17.50;99.90;;;;;;4951306;29;20562;-78
2022/10/16 10:58:23;;;;;;;3.05;1.25;;;17.50;99.90;;;;;;4950658;29;20122;-78
2022/10/16 11:01:06;;;;;;;9.15;1.58;;;17.60;99.90;;;;;;4952222;29;20043;-77
2022/10/16 11:03:59;;;;;;;9.77;1.83;;;17.70;99.90;;;;;;4946936;29;20379;-78
2022/10/16 11:06:46;;;;;;;4.70;1.47;;;17.90;99.90;;;;;;4944593;29;20042;-77
2022/10/16 11:09:36;;;;;;;5.55;1.38;;;17.80;99.90;;;;;;4951361;29;20314;-77
2022/10/16 11:12:41;;;;;;;7.88;1.52;;;17.50;99.90;;;;;;4944194;29;20081;-78
2022/10/16 11:15:35;;;;;;;3.83;1.40;;;17.50;99.90;;;;;;4989071;23;20075;-77
2022/10/16 11:18:20;;;;;;;;;;;17.40;99.90;;;;;;4932967;28;20039;-77
2022/10/16 11:21:01;;;;;;;7.57;1.60;;;17.40;99.90;;;;;;4930373;29;19926;-76
2022/10/16 11:23:30;;;;;;;6.90;1.30;;;17.50;99.90;;;;;;4920298;29;20036;-77
2022/10/16 11:26:00;;;;;;;6.68;2.17;;;17.80;99.90;;;;;;4902147;29;20055;-76
2022/10/16 11:29:12;;;;;;;8.32;1.92;;;18.10;99.90;;;;;;4914560;29;20065;-76
2022/10/16 11:31:58;;;;;;;7.07;1.60;;;18.30;99.90;;;;;;4931498;29;20040;-77
2022/10/16 11:34:41;;;;;;;8.38;1.73;;;18.60;99.90;;;;;;4920475;29;20043;-76
2022/10/16 11:37:36;;;;;;;7.95;1.52;;;18.40;99.90;;;;;;4920404;29;20066;-78
2022/10/16 11:40:33;;;;;;;4.88;1.23;;;18.50;99.90;;;;;;4931637;29;20055;-79
2022/10/16 11:43:54;;;;;;;8.63;1.20;;;18.70;99.90;;;;;;4913841;29;20048;-78
2022/10/16 11:47:08;;;;;;;9.27;1.67;;;18.80;99.90;;;;;;4909707;29;20099;-79
2022/10/16 11:49:47;;;;;;;6.00;1.40;;;18.80;99.90;;;;;;4908583;29;20040;-77
2022/10/16 11:53:09;;;;;;;5.70;1.40;;;18.90;99.90;;;;;;4921028;29;20047;-77
2022/10/16 11:55:45;;;;;;;5.28;1.45;;;19.10;99.90;;;;;;4921225;29;20047;-78
2022/10/16 12:02:37;;;;;;;4.22;1.02;;;19.00;99.90;;;;;;4937362;29;20043;-78
2022/10/16 12:05:31;;;;;;;8.18;1.60;;;19.00;99.90;;;;;;4917765;29;20122;-78
2022/10/16 12:08:24;;;;;;;2.22;1.25;;;19.00;99.90;;;;;;4898226;29;20123;-78
2022/10/16 12:11:09;;;;;;;4.60;1.10;;;19.10;99.90;;;;;;4903530;29;20044;-78
2022/10/16 12:13:49;;;;;;;6.88;1.75;;;19.20;99.90;;;;;;4920953;29;20529;-78
2022/10/16 12:16:47;;;;;;;5.70;1.50;;;19.40;99.90;;;;;;4921127;29;20114;-79
2022/10/16 12:19:19;;;;;;;8.23;1.85;;;19.70;99.90;;;;;;4920727;29;20090;-77
2022/10/16 12:22:02;;;;;;;7.82;1.40;;;19.50;99.90;;;;;;4918156;29;20052;-78
2022/10/16 12:24:42;;;;;;;8.00;1.73;;;19.20;99.90;;;;;;4909785;29;20127;-78
2022/10/16 12:27:38;;;;;;;8.23;2.10;;;18.70;99.90;;;;;;4901837;29;20048;-78
2022/10/16 12:30:24;;;;;;;7.13;1.77;;;18.50;99.90;;;;;;4902103;29;20080;-78
2022/10/16 12:33:04;;;;;;;4.20;1.30;;;18.60;99.90;;;;;;4918670;29;20036;-78
2022/10/16 12:35:50;;;;;;;6.88;1.80;;;18.50;99.90;;;;;;4914001;29;20039;-78
2022/10/16 12:38:37;;;;;;;7.35;1.50;;;18.50;99.90;;;;;;4921415;29;20054;-78
2022/10/16 12:41:43;;;;;;;7.28;1.35;;;18.70;99.90;;;;;;4920780;29;20130;-78
2022/10/16 12:44:54;;;;;;;5.70;1.27;;;18.60;99.90;;;;;;4918267;29;20051;-78
2022/10/16 12:47:57;;;;;;;5.05;1.30;;;18.40;99.90;;;;;;4916878;29;20052;-78
2022/10/16 12:50:38;;;;;;;8.35;1.27;;;18.10;99.90;;;;;;4901914;29;20135;-78
2022/10/16 12:53:34;;;;;;;9.80;1.98;;;17.90;99.90;;;;;;4916911;29;20048;-78
2022/10/16 12:56:50;;;;;;;7.50;1.35;;;17.90;99.90;;;;;;4916783;29;20048;-78
2022/10/16 12:59:48;;;;;;;10.40;2.08;;;17.90;99.90;;;;;;4929636;29;20138;-78
2022/10/16 13:02:55;;;;;;;5.65;1.25;;;17.90;99.90;;;;;;4920343;29;20039;-77
2022/10/16 13:06:12;;;;;;;5.47;1.52;;;17.90;99.90;;;;;;4934675;29;20044;-78
2022/10/16 13:09:28;;;;;;;7.07;1.50;;;18.20;99.90;;;;;;4928800;29;20042;-79
2022/10/16 13:12:24;;;;;;;7.28;1.38;;;18.30;99.90;;;;;;4932664;29;20048;-81
2022/10/16 13:15:35;;;;;;;5.85;1.10;;;18.50;99.90;;;;;;5084163;23;20058;-79
2022/10/16 13:18:18;;;;;;;4.50;1.10;;;18.50;99.90;;;;;;4953829;28;20046;-79
2022/10/16 13:20:59;;;;;;;4.70;1.65;;;18.60;99.90;;;;;;4969271;28;20059;-79
2022/10/16 13:24:12;;;;;;;6.05;1.27;;;18.50;99.90;;;;;;4948820;28;20084;-79
2022/10/16 13:27:18;;;;;;;6.15;1.48;;;18.40;99.90;;;;;;4926728;29;20047;-78
2022/10/16 13:30:08;;;;;;;4.35;1.15;;;18.40;99.90;;;;;;4933285;29;20039;-78